createdAt,value
2022-10-26T00:01:32.223Z,62.30
2022-10-26T00:04:01.059Z,25.27
2022-10-26T00:06:30.274Z,24.80
2022-10-26T00:09:00.723Z,40.77
2022-10-26T00:11:29.644Z,30.33
2022-10-26T00:13:58.524Z,45.50
2022-10-26T00:16:29.099Z,36.53
2022-10-26T00:18:57.737Z,26.80
2022-10-26T00:21:26.406Z,53.70
2022-10-26T00:23:55.230Z,62.60
2022-10-26T00:26:25.664Z,37.37
2022-10-26T00:28:55.069Z,45.20
2022-10-26T00:31:24.456Z,61.33
2022-10-26T00:33:54.410Z,23.33
2022-10-26T00:36:23.505Z,26.57
2022-10-26T00:38:53.119Z,20.37
2022-10-26T00:41:25.324Z,31.50
2022-10-26T00:43:55.188Z,49.73
2022-10-26T00:46:27.943Z,45.77
2022-10-26T00:49:00.325Z,32.30
2022-10-26T00:51:33.667Z,64.07
2022-10-26T00:54:06.023Z,41.97
2022-10-26T00:56:37.030Z,50.80
2022-10-26T00:59:07.846Z,58.27
2022-10-26T01:01:39.100Z,80.13
2022-10-26T01:04:08.044Z,75.50
2022-10-26T01:06:38.691Z,54.20
2022-10-26T01:09:08.025Z,88.33
2022-10-26T01:11:38.341Z,57.00
2022-10-26T01:14:11.140Z,60.43
2022-10-26T01:16:55.036Z,83.13
2022-10-26T01:20:08.595Z,112.10
2022-10-26T01:22:41.395Z,124.37
2022-10-26T01:25:21.277Z,152.13
2022-10-26T01:27:54.020Z,134.90
2022-10-26T01:30:32.617Z,135.60
2022-10-26T01:33:17.768Z,91.50
2022-10-26T01:35:56.838Z,89.60
2022-10-26T01:38:32.038Z,85.90
2022-10-26T01:41:10.057Z,111.43
2022-10-26T01:43:43.198Z,83.83
2022-10-26T01:46:14.711Z,192.47
2022-10-26T01:48:45.270Z,168.33
2022-10-26T01:51:15.560Z,238.63
2022-10-26T01:53:47.447Z,228.70
2022-10-26T01:56:21.846Z,199.57
2022-10-26T01:59:22.983Z,179.17
2022-10-26T02:02:36.873Z,227.90
2022-10-26T02:05:32.129Z,196.13
2022-10-26T02:08:16.749Z,189.67
2022-10-26T02:10:54.320Z,177.00
2022-10-26T02:13:34.756Z,148.37
2022-10-26T02:16:20.286Z,124.37
2022-10-26T02:18:55.576Z,124.87
2022-10-26T02:21:33.027Z,102.37
2022-10-26T02:24:01.846Z,121.07
2022-10-26T02:26:32.499Z,90.90
2022-10-26T02:29:06.174Z,78.67
2022-10-26T02:31:36.463Z,86.00
2022-10-26T02:34:11.012Z,55.97
2022-10-26T02:36:45.791Z,63.57
2022-10-26T02:39:17.722Z,77.10
2022-10-26T02:41:47.408Z,104.10
2022-10-26T02:44:22.901Z,127.57
2022-10-26T02:46:53.167Z,45.03
2022-10-26T02:49:22.697Z,104.27
2022-10-26T02:52:01.016Z,86.43
2022-10-26T02:54:36.144Z,90.73
2022-10-26T02:57:14.398Z,72.50
2022-10-26T02:59:47.672Z,115.47
2022-10-26T03:02:18.522Z,77.37
2022-10-26T03:04:47.373Z,149.83
2022-10-26T03:07:22.280Z,111.97
2022-10-26T03:09:51.464Z,127.50
2022-10-26T03:12:20.677Z,143.20
2022-10-26T03:14:49.521Z,117.87
2022-10-26T03:17:18.384Z,131.53
2022-10-26T03:19:47.149Z,93.03
2022-10-26T03:22:16.005Z,77.93
2022-10-26T03:24:46.484Z,109.60
2022-10-26T03:27:15.910Z,50.63
2022-10-26T03:29:44.741Z,81.93
2022-10-26T03:32:13.613Z,76.03
2022-10-26T03:34:42.251Z,164.83
2022-10-26T03:37:11.037Z,108.70
2022-10-26T03:39:39.681Z,123.57
2022-10-26T03:42:09.950Z,99.27
2022-10-26T03:44:38.869Z,57.63
2022-10-26T03:47:07.530Z,58.57
2022-10-26T03:49:36.465Z,68.77
2022-10-26T03:52:05.904Z,109.33
2022-10-26T03:54:34.739Z,75.03
2022-10-26T03:57:03.669Z,142.27
2022-10-26T03:59:34.151Z,75.73
2022-10-26T04:02:02.697Z,72.83
2022-10-26T04:04:31.578Z,71.57
2022-10-26T04:07:00.525Z,91.87
2022-10-26T04:09:29.309Z,151.87
2022-10-26T04:11:58.378Z,137.50
2022-10-26T04:14:27.153Z,90.80
2022-10-26T04:16:57.520Z,34.97
2022-10-26T04:19:26.369Z,55.67
2022-10-26T04:21:55.144Z,56.13
2022-10-26T04:24:24.015Z,51.87
2022-10-26T04:26:52.715Z,77.60
2022-10-26T04:29:21.652Z,61.17
2022-10-26T04:31:50.553Z,53.97
2022-10-26T04:34:20.967Z,56.80
2022-10-26T04:36:49.650Z,33.80
2022-10-26T04:39:18.501Z,54.40
2022-10-26T04:41:47.118Z,70.37
2022-10-26T04:44:15.996Z,64.27
2022-10-26T04:46:44.745Z,116.57
2022-10-26T04:49:13.351Z,47.87
2022-10-26T04:51:43.247Z,43.70
2022-10-26T04:54:12.091Z,29.90
2022-10-26T04:56:40.708Z,78.27
2022-10-26T04:59:09.291Z,42.00
2022-10-26T05:01:37.951Z,62.70
2022-10-26T05:04:06.527Z,25.00
2022-10-26T05:06:35.122Z,57.80
2022-10-26T05:09:05.221Z,34.10
2022-10-26T05:11:33.725Z,45.80
2022-10-26T05:14:02.212Z,40.17
2022-10-26T05:16:30.792Z,33.53
2022-10-26T05:18:59.345Z,33.00
2022-10-26T05:21:27.959Z,25.77
2022-10-26T05:23:56.479Z,18.90
2022-10-26T05:26:26.457Z,31.00
2022-10-26T05:28:54.965Z,32.63
2022-10-26T05:31:23.442Z,41.03
2022-10-26T05:33:52.528Z,27.20
2022-10-26T05:36:21.704Z,89.13
2022-10-26T05:38:50.329Z,42.27
2022-10-26T05:41:18.925Z,64.27
2022-10-26T05:43:50.453Z,51.00
2022-10-26T05:46:19.063Z,49.90
2022-10-26T05:48:48.197Z,38.33
2022-10-26T05:51:16.996Z,41.00
2022-10-26T05:53:45.777Z,47.67
2022-10-26T05:56:21.132Z,59.63
2022-10-26T05:58:52.330Z,65.00
2022-10-26T06:01:31.533Z,40.03
2022-10-26T06:04:12.841Z,58.43
2022-10-26T06:06:45.423Z,52.83
2022-10-26T06:09:15.671Z,38.33
2022-10-26T06:11:44.910Z,61.00
2022-10-26T06:14:15.542Z,40.43
2022-10-26T06:16:57.651Z,33.00
2022-10-26T06:19:36.880Z,44.00
2022-10-26T06:22:22.509Z,52.27
2022-10-26T06:24:57.657Z,61.77
2022-10-26T06:27:36.319Z,33.40
2022-10-26T06:30:10.103Z,23.83
2022-10-26T06:32:39.710Z,48.00
2022-10-26T06:35:22.420Z,48.23
2022-10-26T06:37:52.700Z,41.97
2022-10-26T06:40:22.447Z,54.87
2022-10-26T06:42:51.681Z,88.07
2022-10-26T06:45:22.766Z,47.30
2022-10-26T06:47:58.718Z,64.40
2022-10-26T06:50:34.170Z,55.10
2022-10-26T06:53:12.489Z,38.70
2022-10-26T06:55:44.738Z,53.90
2022-10-26T06:58:17.516Z,45.17
2022-10-26T07:00:50.479Z,50.77
2022-10-26T07:03:19.578Z,96.40
2022-10-26T07:05:48.510Z,86.53
2022-10-26T07:08:17.026Z,77.47
2022-10-26T07:10:45.563Z,75.10
2022-10-26T07:13:14.403Z,72.27
2022-10-26T07:15:43.579Z,84.50
2022-10-26T07:18:13.529Z,87.30
2022-10-26T07:20:43.980Z,77.30
2022-10-26T07:23:12.598Z,100.47
2022-10-26T07:25:41.717Z,102.70
2022-10-26T07:28:11.990Z,70.80
2022-10-26T07:30:41.479Z,59.47
2022-10-26T07:33:12.113Z,84.97
2022-10-26T07:35:42.762Z,82.27
2022-10-26T07:38:13.320Z,55.23
2022-10-26T07:40:42.324Z,39.83
2022-10-26T07:43:10.876Z,53.53
2022-10-26T07:45:40.719Z,46.43
2022-10-26T07:48:09.491Z,42.57
2022-10-26T07:50:38.241Z,48.83
2022-10-26T07:53:08.654Z,40.27
2022-10-26T07:55:37.248Z,53.57
2022-10-26T07:58:05.863Z,56.93
2022-10-26T08:00:34.717Z,68.10
2022-10-26T08:03:03.385Z,79.47
2022-10-26T08:08:07.848Z,61.30
2022-10-26T08:10:36.622Z,57.37
2022-10-26T08:13:05.424Z,66.17
2022-10-26T08:15:34.042Z,103.93
2022-10-26T08:18:02.921Z,44.30
2022-10-26T08:20:31.896Z,49.10
2022-10-26T08:23:01.285Z,62.17
2022-10-26T08:25:31.667Z,61.10
2022-10-26T08:28:03.265Z,36.87
2022-10-26T08:30:32.471Z,74.10
2022-10-26T08:33:02.446Z,93.57
2022-10-26T08:35:31.349Z,98.17
2022-10-26T08:38:01.228Z,71.13
2022-10-26T08:40:33.638Z,55.73
2022-10-26T08:43:06.503Z,97.07
2022-10-26T08:45:39.823Z,46.50
2022-10-26T08:48:14.850Z,51.63
2022-10-26T08:50:48.805Z,66.60
2022-10-26T08:53:23.842Z,90.00
2022-10-26T08:55:57.898Z,58.10
2022-10-26T08:58:30.779Z,73.13
2022-10-26T09:01:01.359Z,74.53
2022-10-26T09:03:30.293Z,76.20
2022-10-26T09:06:11.618Z,72.47
2022-10-26T09:08:51.108Z,63.90
2022-10-26T09:11:33.989Z,37.47
2022-10-26T09:14:14.929Z,33.13
2022-10-26T09:16:56.302Z,45.73
2022-10-26T09:19:47.415Z,43.20
2022-10-26T09:22:22.870Z,32.90
2022-10-26T09:24:55.039Z,55.30
2022-10-26T09:27:29.164Z,22.87
2022-10-26T09:29:59.836Z,43.27
2022-10-26T09:32:36.194Z,31.10
2022-10-26T09:35:11.101Z,37.53
2022-10-26T09:37:45.223Z,35.17
2022-10-26T09:40:19.847Z,64.70
2022-10-26T09:42:55.680Z,45.83
2022-10-26T09:45:29.378Z,46.63
2022-10-26T09:48:05.185Z,53.37
2022-10-26T09:50:37.260Z,33.97
2022-10-26T09:53:06.004Z,23.23
2022-10-26T09:55:40.560Z,24.77
2022-10-26T09:58:16.422Z,23.00
2022-10-26T10:00:46.741Z,28.33
2022-10-26T10:03:23.644Z,31.60
2022-10-26T10:05:53.051Z,21.83
2022-10-26T10:08:23.879Z,28.70
2022-10-26T10:10:58.082Z,24.13
2022-10-26T10:13:30.997Z,21.20
2022-10-26T10:16:05.783Z,20.67
2022-10-26T10:18:36.217Z,23.97
2022-10-26T10:21:06.194Z,22.60
2022-10-26T10:23:36.430Z,23.80
2022-10-26T10:26:08.414Z,65.83
2022-10-26T10:28:39.570Z,18.03
2022-10-26T10:31:21.052Z,20.47
2022-10-26T10:33:50.636Z,20.57
2022-10-26T10:36:21.893Z,22.53
2022-10-26T10:38:52.262Z,18.83
2022-10-26T10:41:25.652Z,21.53
2022-10-26T10:43:58.714Z,19.43
2022-10-26T10:46:29.172Z,21.03
2022-10-26T10:49:04.939Z,22.43
2022-10-26T10:51:40.472Z,18.73
2022-10-26T10:54:22.609Z,19.30
2022-10-26T10:56:53.975Z,19.33
2022-10-26T10:59:55.743Z,18.63
2022-10-26T11:02:57.604Z,21.20
2022-10-26T11:05:40.707Z,20.13
2022-10-26T11:08:12.343Z,23.50
2022-10-26T11:10:43.357Z,22.67
2022-10-26T11:13:21.320Z,21.37
2022-10-26T11:15:57.477Z,19.23
2022-10-26T11:18:32.117Z,17.47
2022-10-26T11:21:05.735Z,17.27
2022-10-26T11:23:40.303Z,15.60
2022-10-26T11:26:15.689Z,14.45
2022-10-26T11:28:49.752Z,13.93
2022-10-26T11:31:24.570Z,14.90
2022-10-26T11:34:05.335Z,14.45
2022-10-26T11:36:36.556Z,12.85
2022-10-26T11:39:17.543Z,136.07
2022-10-26T11:41:52.297Z,13.43
2022-10-26T11:44:26.556Z,11.80
2022-10-26T11:47:01.077Z,16.33
2022-10-26T11:49:36.416Z,82.43
2022-10-26T11:52:14.676Z,14.25
2022-10-26T11:54:48.140Z,15.50
2022-10-26T11:57:17.757Z,13.87
2022-10-26T11:59:51.819Z,13.77
2022-10-26T12:02:23.797Z,17.77
2022-10-26T12:04:57.734Z,12.57
2022-10-26T12:07:31.389Z,12.03
2022-10-26T12:10:02.142Z,9.45
2022-10-26T12:12:39.918Z,8.00
2022-10-26T12:15:20.370Z,14.13
2022-10-26T12:17:56.270Z,12.32
2022-10-26T12:20:54.116Z,12.15
2022-10-26T12:23:34.050Z,7.78
2022-10-26T12:26:49.577Z,9.63
2022-10-26T12:29:38.500Z,7.85
2022-10-26T12:32:54.404Z,6.78
2022-10-26T12:35:42.509Z,7.70
2022-10-26T12:38:48.831Z,8.02
2022-10-26T12:41:26.169Z,11.60
2022-10-26T12:43:58.922Z,8.00
2022-10-26T12:46:43.519Z,6.82
2022-10-26T12:49:59.944Z,7.65
2022-10-26T12:52:43.859Z,7.18
2022-10-26T12:55:49.080Z,8.25
2022-10-26T12:58:53.714Z,9.70
2022-10-26T13:01:59.122Z,8.43
2022-10-26T13:04:47.399Z,8.18
2022-10-26T13:07:25.614Z,8.93
2022-10-26T13:10:00.995Z,7.22
2022-10-26T13:12:37.054Z,12.48
2022-10-26T13:15:19.986Z,10.38
2022-10-26T13:17:57.455Z,8.43
2022-10-26T13:20:26.636Z,8.87
2022-10-26T13:22:55.588Z,6.75
2022-10-26T13:25:29.090Z,6.78
2022-10-26T13:28:06.612Z,6.63
2022-10-26T13:30:47.103Z,8.30
2022-10-26T13:33:22.876Z,7.13
2022-10-26T13:35:55.525Z,11.35
2022-10-26T13:38:29.947Z,9.65
2022-10-26T13:41:08.983Z,7.70
2022-10-26T13:43:38.455Z,12.00
2022-10-26T13:46:07.359Z,15.00
2022-10-26T13:48:40.092Z,33.13
2022-10-26T13:51:19.316Z,20.95
2022-10-26T13:53:53.982Z,14.80
2022-10-26T13:56:32.146Z,15.40
2022-10-26T13:59:03.777Z,18.97
2022-10-26T14:01:33.624Z,11.13
2022-10-26T14:04:16.827Z,20.40
2022-10-26T14:06:49.828Z,17.92
2022-10-26T14:09:20.028Z,13.93
2022-10-26T14:11:52.173Z,11.30
2022-10-26T14:14:24.152Z,10.07
2022-10-26T14:16:54.486Z,9.95
2022-10-26T14:19:28.436Z,12.13
2022-10-26T14:21:57.795Z,11.63
2022-10-26T14:24:45.799Z,8.82
2022-10-26T14:27:18.269Z,9.33
2022-10-26T14:29:58.534Z,9.37
2022-10-26T14:32:37.112Z,8.35
2022-10-26T14:35:06.259Z,11.75
2022-10-26T14:37:42.991Z,9.48
2022-10-26T14:40:18.588Z,6.82
2022-10-26T14:42:51.531Z,8.45
2022-10-26T14:45:47.220Z,9.30
2022-10-26T14:48:24.268Z,7.00
2022-10-26T14:51:04.112Z,7.30
2022-10-26T14:53:37.923Z,10.20
2022-10-26T14:56:19.405Z,7.83
2022-10-26T14:58:50.152Z,6.73
2022-10-26T15:01:29.303Z,8.33
2022-10-26T15:04:02.947Z,7.03
2022-10-26T15:06:46.492Z,6.82
2022-10-26T15:09:43.933Z,7.50
2022-10-26T15:12:28.590Z,9.20
2022-10-26T15:15:06.680Z,8.77
2022-10-26T15:17:40.046Z,9.73
2022-10-26T15:20:16.689Z,10.30
2022-10-26T15:22:51.738Z,9.00
2022-10-26T15:25:23.237Z,9.90
2022-10-26T15:27:52.749Z,16.60
2022-10-26T15:30:26.480Z,22.10
2022-10-26T15:32:56.827Z,31.20
2022-10-26T15:35:34.676Z,84.60
2022-10-26T15:38:03.442Z,103.20
2022-10-26T15:40:33.280Z,50.20
2022-10-26T15:43:02.525Z,38.57
2022-10-26T15:45:35.294Z,21.57
2022-10-26T15:48:19.798Z,22.57
2022-10-26T15:50:48.723Z,35.93
2022-10-26T15:53:21.372Z,40.47
2022-10-26T15:55:51.490Z,57.17
2022-10-26T15:58:20.716Z,43.97
2022-10-26T16:00:51.275Z,47.43
2022-10-26T16:03:22.568Z,62.50
2022-10-26T16:05:57.295Z,73.83
2022-10-26T16:08:27.935Z,17.60
2022-10-26T16:10:56.972Z,13.80
2022-10-26T16:13:26.762Z,15.50
2022-10-26T16:15:57.029Z,19.63
2022-10-26T16:18:25.984Z,21.73
2022-10-26T16:20:54.914Z,21.10
2022-10-26T16:23:23.513Z,20.73
2022-10-26T16:25:52.337Z,20.10
2022-10-26T16:28:21.208Z,23.77
2022-10-26T16:30:50.076Z,24.30
2022-10-26T16:33:20.586Z,31.07
2022-10-26T16:35:57.521Z,39.30
2022-10-26T16:38:27.595Z,38.13
2022-10-26T16:41:03.117Z,39.93
2022-10-26T16:43:34.053Z,26.73
2022-10-26T16:46:07.217Z,21.33
2022-10-26T16:48:39.134Z,74.33
2022-10-26T16:51:12.958Z,192.33
2022-10-26T16:53:42.200Z,92.87
2022-10-26T16:56:13.669Z,86.30
2022-10-26T16:58:42.864Z,110.43
2022-10-26T17:01:14.089Z,185.50
2022-10-26T17:03:44.896Z,96.80
2022-10-26T17:06:14.190Z,88.17
2022-10-26T17:08:43.511Z,69.63
2022-10-26T17:11:14.021Z,51.90
2022-10-26T17:13:43.641Z,38.80
2022-10-26T17:16:14.979Z,37.77
2022-10-26T17:18:47.909Z,44.47
2022-10-26T17:21:20.005Z,41.63
2022-10-26T17:23:49.093Z,54.30
2022-10-26T17:26:18.018Z,82.83
2022-10-26T17:28:47.228Z,136.27
2022-10-26T17:31:16.942Z,113.83
2022-10-26T17:33:50.474Z,110.07
2022-10-26T17:36:21.543Z,86.33
2022-10-26T17:38:52.966Z,76.20
2022-10-26T17:41:23.770Z,82.63
2022-10-26T17:43:53.644Z,80.27
2022-10-26T17:46:24.718Z,84.97
2022-10-26T17:48:59.683Z,70.93
2022-10-26T17:51:30.933Z,58.03
2022-10-26T17:54:00.633Z,63.23
2022-10-26T17:56:31.909Z,61.43
2022-10-26T17:59:03.105Z,50.53
2022-10-26T18:01:33.044Z,50.23
2022-10-26T18:04:04.590Z,40.23
2022-10-26T18:06:34.582Z,52.73
2022-10-26T18:09:04.000Z,64.57
2022-10-26T18:11:33.950Z,69.57
2022-10-26T18:14:04.053Z,65.53
2022-10-26T18:16:33.804Z,76.17
2022-10-26T18:19:06.791Z,66.97
2022-10-26T18:21:38.957Z,59.10
2022-10-26T18:24:09.786Z,125.47
2022-10-26T18:26:39.694Z,175.03
2022-10-26T18:29:09.006Z,119.30
2022-10-26T18:31:38.303Z,85.83
2022-10-26T18:34:11.676Z,80.63
2022-10-26T18:36:41.379Z,74.37
2022-10-26T18:39:11.284Z,66.43
2022-10-26T18:41:41.419Z,45.17
2022-10-26T18:44:11.380Z,49.70
2022-10-26T18:46:45.518Z,39.37
2022-10-26T18:49:19.687Z,69.37
2022-10-26T18:51:50.027Z,57.80
2022-10-26T18:54:20.425Z,44.70
2022-10-26T18:56:50.064Z,50.97
2022-10-26T18:59:19.721Z,94.03
2022-10-26T19:01:51.360Z,170.30
2022-10-26T19:04:22.693Z,100.77
2022-10-26T19:06:51.865Z,93.27
2022-10-26T19:09:21.309Z,81.23
2022-10-26T19:11:50.389Z,65.90
2022-10-26T19:14:19.339Z,56.57
2022-10-26T19:16:48.314Z,55.13
2022-10-26T19:19:18.202Z,51.03
2022-10-26T19:21:49.989Z,61.83
2022-10-26T19:24:20.916Z,71.60
2022-10-26T19:26:51.059Z,62.20
2022-10-26T19:29:20.094Z,63.80
2022-10-26T19:31:51.873Z,69.20
2022-10-26T19:34:20.887Z,64.83
2022-10-26T19:36:51.419Z,82.37
2022-10-26T19:39:20.333Z,102.50
2022-10-26T19:41:49.271Z,80.37
2022-10-26T19:44:19.703Z,65.17
2022-10-26T19:46:49.881Z,67.47
2022-10-26T19:49:18.914Z,62.60
2022-10-26T19:51:48.420Z,83.37
2022-10-26T19:54:18.635Z,103.23
2022-10-26T19:56:47.464Z,69.47
2022-10-26T19:59:16.367Z,56.43
2022-10-26T20:01:45.282Z,52.73
2022-10-26T20:04:14.119Z,45.57
2022-10-26T20:06:42.989Z,45.80
2022-10-26T20:09:11.942Z,47.53
2022-10-26T20:11:43.457Z,45.83
2022-10-26T20:14:14.833Z,50.53
2022-10-26T20:16:43.685Z,54.83
2022-10-26T20:19:12.674Z,56.77
2022-10-26T20:21:41.416Z,58.40
2022-10-26T20:24:10.653Z,50.00
2022-10-26T20:26:40.192Z,55.33
2022-10-26T20:29:11.537Z,50.00
2022-10-26T20:31:40.289Z,61.40
2022-10-26T20:34:09.282Z,54.33
2022-10-26T20:36:38.054Z,47.07
2022-10-26T20:39:07.391Z,45.00
2022-10-26T20:41:42.740Z,47.07
2022-10-26T20:44:21.944Z,44.80
2022-10-26T20:46:51.486Z,44.20
2022-10-26T20:49:20.850Z,47.63
2022-10-26T20:52:15.727Z,53.37
2022-10-26T20:54:51.838Z,74.87
2022-10-26T20:57:23.957Z,78.20
2022-10-26T20:59:57.536Z,74.87
2022-10-26T21:02:27.877Z,80.47
2022-10-26T21:04:56.894Z,66.70
2022-10-26T21:07:25.794Z,63.00
2022-10-26T21:09:54.628Z,59.27
2022-10-26T21:12:24.122Z,51.97
2022-10-26T21:14:54.305Z,47.47
2022-10-26T21:17:23.138Z,55.37
2022-10-26T21:19:51.898Z,48.83
2022-10-26T21:22:20.725Z,51.47
2022-10-26T21:24:49.538Z,54.77
2022-10-26T21:27:18.486Z,58.53
2022-10-26T21:29:47.307Z,50.93
2022-10-26T21:32:17.369Z,51.60
2022-10-26T21:34:46.386Z,52.47
2022-10-26T21:37:15.224Z,53.93
2022-10-26T21:39:44.164Z,53.07
2022-10-26T21:42:12.959Z,58.87
2022-10-26T21:44:42.069Z,54.37
2022-10-26T21:47:12.700Z,56.73
2022-10-26T21:49:43.161Z,56.83
2022-10-26T21:52:12.281Z,57.63
2022-10-26T21:54:41.044Z,55.63
2022-10-26T21:57:09.726Z,63.00
2022-10-26T21:59:38.233Z,62.27
2022-10-26T22:02:07.226Z,59.93
2022-10-26T22:04:36.120Z,60.77
2022-10-26T22:07:06.372Z,55.33
2022-10-26T22:09:40.741Z,56.97
2022-10-26T22:12:18.495Z,55.87
2022-10-26T22:14:47.295Z,53.70
2022-10-26T22:17:15.803Z,58.97
2022-10-26T22:19:44.599Z,53.17
2022-10-26T22:22:15.072Z,51.70
2022-10-26T22:24:43.868Z,59.07
2022-10-26T22:27:12.640Z,56.90
2022-10-26T22:29:41.416Z,52.37
2022-10-26T22:32:10.162Z,51.30
2022-10-26T22:34:38.901Z,52.40
2022-10-26T22:37:07.705Z,51.83
2022-10-26T22:39:38.061Z,51.83
2022-10-26T22:42:07.268Z,52.70
2022-10-26T22:44:36.309Z,60.23
2022-10-26T22:47:05.112Z,54.83
2022-10-26T22:49:33.947Z,56.67
2022-10-26T22:52:02.704Z,54.87
2022-10-26T22:54:31.373Z,61.93
2022-10-26T22:57:01.538Z,55.20
2022-10-26T22:59:30.215Z,54.63
2022-10-26T23:01:58.907Z,55.87
2022-10-26T23:04:27.766Z,58.37
2022-10-26T23:06:56.533Z,60.23
2022-10-26T23:09:25.322Z,57.50
2022-10-26T23:11:53.885Z,58.70
2022-10-26T23:14:24.231Z,50.63
2022-10-26T23:16:53.073Z,57.83
2022-10-26T23:19:21.634Z,57.50
2022-10-26T23:21:50.504Z,60.20
2022-10-26T23:24:19.298Z,61.83
2022-10-26T23:26:48.153Z,57.20
2022-10-26T23:29:16.942Z,51.13
2022-10-26T23:31:47.227Z,53.33
2022-10-26T23:34:16.036Z,55.33
2022-10-26T23:36:44.683Z,54.03
2022-10-26T23:39:13.546Z,54.70
2022-10-26T23:41:42.174Z,52.10
2022-10-26T23:44:10.834Z,52.10
2022-10-26T23:46:39.401Z,51.80
2022-10-26T23:49:09.719Z,56.57
2022-10-26T23:51:38.469Z,57.67
2022-10-26T23:54:07.397Z,61.43
2022-10-26T23:56:36.190Z,53.33
2022-10-26T23:59:07.637Z,54.80
